createdAt,value
2022-09-25T00:18:31.783Z,20.8
2022-09-25T00:48:31.766Z,20.8
2022-09-25T01:18:31.761Z,20.8
2022-09-25T01:48:31.785Z,20.8
2022-09-25T02:18:31.764Z,20.7
2022-09-25T02:48:31.793Z,20.8
2022-09-25T03:18:31.801Z,20.7
2022-09-25T03:48:31.815Z,20.7
2022-09-25T04:18:31.478Z,20.7
2022-09-25T04:48:31.790Z,20.6
2022-09-25T05:18:31.781Z,20.6
2022-09-25T05:48:31.781Z,20.6
2022-09-25T06:18:31.785Z,20.6
2022-09-25T06:48:31.767Z,20.6
2022-09-25T07:18:31.764Z,20.6
2022-09-25T07:48:31.790Z,20.6
2022-09-25T08:18:31.768Z,20.8
2022-09-25T08:48:31.942Z,21.0
2022-09-25T09:18:31.900Z,21.0
2022-09-25T09:48:31.825Z,21.1
2022-09-25T10:18:31.804Z,21.3
2022-09-25T10:48:31.872Z,21.3
2022-09-25T11:18:31.802Z,21.1
2022-09-25T11:48:31.776Z,21.1
2022-09-25T12:18:31.788Z,21.1
2022-09-25T12:48:31.772Z,21.1
2022-09-25T13:18:31.779Z,21.0
2022-09-25T13:48:31.761Z,21.1
2022-09-25T14:18:31.774Z,21.0
2022-09-25T14:48:31.765Z,21.0
2022-09-25T15:18:31.782Z,21.2
2022-09-25T15:48:31.788Z,21.3
2022-09-25T16:18:31.865Z,21.1
2022-09-25T16:48:31.784Z,21.1
2022-09-25T17:18:31.733Z,21.0
2022-09-25T17:48:31.801Z,21.0
2022-09-25T18:18:31.761Z,21.0
2022-09-25T18:48:31.735Z,21.0
2022-09-25T19:18:31.725Z,21.0
2022-09-25T19:48:31.462Z,21.0
2022-09-25T20:18:31.763Z,20.9
2022-09-25T20:48:31.716Z,20.9
2022-09-25T21:18:31.754Z,20.8
2022-09-25T21:48:31.739Z,20.8
2022-09-25T22:18:31.722Z,20.8
2022-09-25T22:48:31.471Z,20.8
2022-09-25T23:18:31.748Z,20.7
2022-09-25T23:48:31.796Z,20.7
